sensor_id;sensor_type;location;lat;lon;timestamp;pressure;altitude;pressure_sealevel;temperature;humidity
32298;BME280;18782;48.984;8.548;2023-05-20T00:01:02;100106.88;;;12.70;87.76
32298;BME280;18782;48.984;8.548;2023-05-20T00:03:31;100106.88;;;12.70;88.04
32298;BME280;18782;48.984;8.548;2023-05-20T00:05:58;100111.22;;;12.73;88.32
32298;BME280;18782;48.984;8.548;2023-05-20T00:08:26;100104.31;;;12.72;88.11
32298;BME280;18782;48.984;8.548;2023-05-20T00:10:54;100100.88;;;12.71;88.23
32298;BME280;18782;48.984;8.548;2023-05-20T00:13:21;100105.16;;;12.69;88.34
32298;BME280;18782;48.984;8.548;2023-05-20T00:15:51;100103.38;;;12.68;88.46
32298;BME280;18782;48.984;8.548;2023-05-20T00:18:19;100095.63;;;12.67;89.01
32298;BME280;18782;48.984;8.548;2023-05-20T00:20:48;100097.34;;;12.66;88.23
32298;BME280;18782;48.984;8.548;2023-05-20T00:23:16;100111.94;;;12.64;88.24
32298;BME280;18782;48.984;8.548;2023-05-20T00:25:43;100110.13;;;12.59;88.83
32298;BME280;18782;48.984;8.548;2023-05-20T00:28:11;100099.75;;;12.57;88.55
32298;BME280;18782;48.984;8.548;2023-05-20T00:30:39;100104.00;;;12.53;88.51
32298;BME280;18782;48.984;8.548;2023-05-20T00:33:07;100106.53;;;12.52;88.97
32298;BME280;18782;48.984;8.548;2023-05-20T00:35:35;100097.81;;;12.47;89.20
32298;BME280;18782;48.984;8.548;2023-05-20T00:38:04;100092.63;;;12.44;89.75
32298;BME280;18782;48.984;8.548;2023-05-20T00:40:31;100099.41;;;12.39;89.76
32298;BME280;18782;48.984;8.548;2023-05-20T00:42:59;100089.84;;;12.35;89.27
32298;BME280;18782;48.984;8.548;2023-05-20T00:45:27;100091.53;;;12.33;89.71
32298;BME280;18782;48.984;8.548;2023-05-20T00:47:56;100094.06;;;12.30;89.89
32298;BME280;18782;48.984;8.548;2023-05-20T00:50:27;100088.81;;;12.26;90.07
32298;BME280;18782;48.984;8.548;2023-05-20T00:52:55;100081.88;;;12.22;90.63
32298;BME280;18782;48.984;8.548;2023-05-20T00:55:25;100093.88;;;12.20;90.09
32298;BME280;18782;48.984;8.548;2023-05-20T00:57:53;100092.09;;;12.16;90.45
32298;BME280;18782;48.984;8.548;2023-05-20T01:00:21;100099.75;;;12.13;90.46
32298;BME280;18782;48.984;8.548;2023-05-20T01:02:49;100098.88;;;12.11;90.92
32298;BME280;18782;48.984;8.548;2023-05-20T01:05:17;100091.03;;;12.08;90.60
32298;BME280;18782;48.984;8.548;2023-05-20T01:07:45;100096.97;;;12.04;91.27
32298;BME280;18782;48.984;8.548;2023-05-20T01:10:13;100087.50;;;12.03;90.93
32298;BME280;18782;48.984;8.548;2023-05-20T01:12:45;100088.34;;;12.02;91.63
32298;BME280;18782;48.984;8.548;2023-05-20T01:15:15;100090.00;;;12.00;91.01
32298;BME280;18782;48.984;8.548;2023-05-20T01:17:45;100092.56;;;12.00;91.89
32298;BME280;18782;48.984;8.548;2023-05-20T01:20:13;100094.28;;;11.98;91.47
32298;BME280;18782;48.984;8.548;2023-05-20T01:22:52;100098.47;;;11.93;92.27
32298;BME280;18782;48.984;8.548;2023-05-20T01:25:20;100099.22;;;11.89;92.66
32298;BME280;18782;48.984;8.548;2023-05-20T01:27:49;100094.06;;;11.89;92.51
32298;BME280;18782;48.984;8.548;2023-05-20T01:30:18;100088.03;;;11.87;93.16
32298;BME280;18782;48.984;8.548;2023-05-20T01:32:47;100089.66;;;11.85;93.27
32298;BME280;18782;48.984;8.548;2023-05-20T01:35:17;100094.91;;;11.88;93.12
32298;BME280;18782;48.984;8.548;2023-05-20T01:37:48;100093.19;;;11.87;92.94
32298;BME280;18782;48.984;8.548;2023-05-20T01:40:17;100087.16;;;11.88;93.77
32298;BME280;18782;48.984;8.548;2023-05-20T01:42:45;100091.50;;;11.89;93.38
32298;BME280;18782;48.984;8.548;2023-05-20T01:45:18;100088.13;;;11.91;93.05
32298;BME280;18782;48.984;8.548;2023-05-20T01:47:46;100076.94;;;11.91;93.31
32298;BME280;18782;48.984;8.548;2023-05-20T01:50:15;100074.41;;;11.94;92.79
32298;BME280;18782;48.984;8.548;2023-05-20T01:52:42;100074.34;;;11.91;92.90
32298;BME280;18782;48.984;8.548;2023-05-20T01:55:11;100074.34;;;11.91;93.41
32298;BME280;18782;48.984;8.548;2023-05-20T01:57:39;100075.09;;;11.85;93.08
32298;BME280;18782;48.984;8.548;2023-05-20T02:00:07;100072.53;;;11.87;93.30
32298;BME280;18782;48.984;8.548;2023-05-20T02:02:43;100074.19;;;11.83;93.52
32298;BME280;18782;48.984;8.548;2023-05-20T02:05:12;100062.22;;;11.87;93.35
32298;BME280;18782;48.984;8.548;2023-05-20T02:07:41;100065.66;;;11.86;93.48
32298;BME280;18782;48.984;8.548;2023-05-20T02:10:09;100058.81;;;11.88;93.24
32298;BME280;18782;48.984;8.548;2023-05-20T02:12:38;100061.34;;;11.86;93.49
32298;BME280;18782;48.984;8.548;2023-05-20T02:15:07;100057.00;;;11.84;93.79
32298;BME280;18782;48.984;8.548;2023-05-20T02:17:35;100051.81;;;11.84;93.48
32298;BME280;18782;48.984;8.548;2023-05-20T02:20:06;100051.81;;;11.84;93.57
32298;BME280;18782;48.984;8.548;2023-05-20T02:22:34;100053.66;;;11.88;93.09
32298;BME280;18782;48.984;8.548;2023-05-20T02:25:02;100041.63;;;11.90;93.08
32298;BME280;18782;48.984;8.548;2023-05-20T02:27:30;100039.97;;;11.92;92.85
32298;BME280;18782;48.984;8.548;2023-05-20T02:29:59;100036.63;;;11.96;92.86
32298;BME280;18782;48.984;8.548;2023-05-20T02:32:27;100035.81;;;11.98;92.92
32298;BME280;18782;48.984;8.548;2023-05-20T02:34:55;100035.00;;;12.01;93.05
32298;BME280;18782;48.984;8.548;2023-05-20T02:37:23;100034.09;;;12.00;93.25
32298;BME280;18782;48.984;8.548;2023-05-20T02:39:50;100027.28;;;12.01;92.78
32298;BME280;18782;48.984;8.548;2023-05-20T02:42:18;100024.72;;;12.02;93.20
32298;BME280;18782;48.984;8.548;2023-05-20T02:44:46;100035.91;;;12.03;93.47
32298;BME280;18782;48.984;8.548;2023-05-20T02:47:15;100029.84;;;12.01;93.43
32298;BME280;18782;48.984;8.548;2023-05-20T02:49:42;100035.06;;;12.04;93.05
32298;BME280;18782;48.984;8.548;2023-05-20T02:52:10;100041.91;;;12.02;93.41
32298;BME280;18782;48.984;8.548;2023-05-20T02:54:39;100041.06;;;12.03;93.59
32298;BME280;18782;48.984;8.548;2023-05-20T02:57:07;100033.25;;;12.00;93.53
32298;BME280;18782;48.984;8.548;2023-05-20T02:59:35;100035.81;;;12.00;93.41
32298;BME280;18782;48.984;8.548;2023-05-20T03:02:02;100035.00;;;12.01;93.46
32298;BME280;18782;48.984;8.548;2023-05-20T03:04:31;100035.00;;;12.01;93.05
32298;BME280;18782;48.984;8.548;2023-05-20T03:06:59;100033.25;;;12.00;92.81
32298;BME280;18782;48.984;8.548;2023-05-20T03:09:28;100045.25;;;11.98;92.62
32298;BME280;18782;48.984;8.548;2023-05-20T03:11:55;100047.81;;;11.96;92.79
32298;BME280;18782;48.984;8.548;2023-05-20T03:14:23;100043.50;;;11.95;93.08
32298;BME280;18782;48.984;8.548;2023-05-20T03:16:51;100045.16;;;11.93;92.82
32298;BME280;18782;48.984;8.548;2023-05-20T03:19:20;100042.56;;;11.92;92.58
32298;BME280;18782;48.984;8.548;2023-05-20T03:21:50;100048.50;;;11.89;92.73
32298;BME280;18782;48.984;8.548;2023-05-20T03:24:18;100037.41;;;11.93;92.79
32298;BME280;18782;48.984;8.548;2023-05-20T03:26:45;100038.25;;;11.91;93.02
32298;BME280;18782;48.984;8.548;2023-05-20T03:29:14;100045.13;;;11.92;92.48
32298;BME280;18782;48.984;8.548;2023-05-20T03:31:43;100045.13;;;11.92;92.68
32298;BME280;18782;48.984;8.548;2023-05-20T03:34:11;100051.13;;;11.91;93.11
32298;BME280;18782;48.984;8.548;2023-05-20T03:36:39;100052.03;;;11.93;93.07
32298;BME280;18782;48.984;8.548;2023-05-20T03:39:09;100058.91;;;11.92;92.74
32298;BME280;18782;48.984;8.548;2023-05-20T03:41:36;100054.59;;;11.91;93.18
32298;BME280;18782;48.984;8.548;2023-05-20T03:44:04;100054.59;;;11.91;93.82
32298;BME280;18782;48.984;8.548;2023-05-20T03:46:32;100060.63;;;11.92;93.27
32298;BME280;18782;48.984;8.548;2023-05-20T03:49:01;100055.44;;;11.92;93.43
32298;BME280;18782;48.984;8.548;2023-05-20T03:51:29;100057.97;;;11.89;93.02
32298;BME280;18782;48.984;8.548;2023-05-20T03:54:03;100062.22;;;11.87;94.04
32298;BME280;18782;48.984;8.548;2023-05-20T03:56:33;100065.69;;;11.89;93.85
32298;BME280;18782;48.984;8.548;2023-05-20T03:59:02;100076.00;;;11.89;94.22
32298;BME280;18782;48.984;8.548;2023-05-20T04:01:29;100064.81;;;11.88;93.98
32298;BME280;18782;48.984;8.548;2023-05-20T04:03:57;100070.84;;;11.89;94.57
32298;BME280;18782;48.984;8.548;2023-05-20T04:06:25;100072.59;;;11.90;93.80
32298;BME280;18782;48.984;8.548;2023-05-20T04:08:54;100067.44;;;11.90;93.95
32298;BME280;18782;48.984;8.548;2023-05-20T04:11:22;100065.78;;;11.92;94.17
32298;BME280;18782;48.984;8.548;2023-05-20T04:13:51;100058.06;;;11.93;93.74
32298;BME280;18782;48.984;8.548;2023-05-20T04:16:20;100068.41;;;11.95;94.01
32298;BME280;18782;48.984;8.548;2023-05-20T04:18:48;100058.94;;;11.94;93.98
32298;BME280;18782;48.984;8.548;2023-05-20T04:21:16;100053.75;;;11.94;94.13
32298;BME280;18782;48.984;8.548;2023-05-20T04:23:44;100055.56;;;11.98;94.56
32298;BME280;18782;48.984;8.548;2023-05-20T04:26:12;100056.56;;;12.05;94.55
32298;BME280;18782;48.984;8.548;2023-05-20T04:28:40;100055.03;;;12.13;94.33
32298;BME280;18782;48.984;8.548;2023-05-20T04:31:09;100054.25;;;12.18;94.25
32298;BME280;18782;48.984;8.548;2023-05-20T04:33:38;100060.38;;;12.22;93.56
32298;BME280;18782;48.984;8.548;2023-05-20T04:36:09;100053.53;;;12.25;93.06
32298;BME280;18782;48.984;8.548;2023-05-20T04:38:42;100055.31;;;12.28;93.22
32298;BME280;18782;48.984;8.548;2023-05-20T04:41:10;100055.34;;;12.31;92.83
32298;BME280;18782;48.984;8.548;2023-05-20T04:43:37;100047.66;;;12.33;93.48
32298;BME280;18782;48.984;8.548;2023-05-20T04:46:06;100047.69;;;12.36;93.48
32298;BME280;18782;48.984;8.548;2023-05-20T04:48:36;100053.94;;;12.47;93.12
32298;BME280;18782;48.984;8.548;2023-05-20T04:51:03;100051.50;;;12.53;92.96
32298;BME280;18782;48.984;8.548;2023-05-20T04:53:31;100052.44;;;12.58;92.59
32298;BME280;18782;48.984;8.548;2023-05-20T04:56:01;100046.47;;;12.62;91.42
32298;BME280;18782;48.984;8.548;2023-05-20T04:58:29;100039.63;;;12.64;91.33
32298;BME280;18782;48.984;8.548;2023-05-20T05:00:57;100036.25;;;12.68;91.00
32298;BME280;18782;48.984;8.548;2023-05-20T05:03:27;100032.00;;;12.70;91.07
32298;BME280;18782;48.984;8.548;2023-05-20T05:05:57;100035.56;;;12.78;91.07
32298;BME280;18782;48.984;8.548;2023-05-20T05:08:25;100042.59;;;12.86;90.77
32298;BME280;18782;48.984;8.548;2023-05-20T05:10:53;100029.69;;;12.89;90.51
32298;BME280;18782;48.984;8.548;2023-05-20T05:13:21;100029.81;;;12.95;90.42
32298;BME280;18782;48.984;8.548;2023-05-20T05:15:57;100031.59;;;12.99;89.65
32298;BME280;18782;48.984;8.548;2023-05-20T05:18:26;100023.03;;;13.03;88.85
32298;BME280;18782;48.984;8.548;2023-05-20T05:21:02;100023.97;;;13.06;89.05
32298;BME280;18782;48.984;8.548;2023-05-20T05:23:33;100023.13;;;13.09;89.07
32298;BME280;18782;48.984;8.548;2023-05-20T05:26:00;100021.50;;;13.14;88.25
32298;BME280;18782;48.984;8.548;2023-05-20T05:28:28;100014.69;;;13.19;88.33
32298;BME280;18782;48.984;8.548;2023-05-20T05:30:56;100014.91;;;13.33;87.77
32298;BME280;18782;48.984;8.548;2023-05-20T05:33:25;100009.94;;;13.47;87.56
32298;BME280;18782;48.984;8.548;2023-05-20T05:35:54;100007.53;;;13.62;86.57
32298;BME280;18782;48.984;8.548;2023-05-20T05:38:25;100006.91;;;13.78;86.81
32298;BME280;18782;48.984;8.548;2023-05-20T05:40:53;100002.75;;;13.93;87.00
32298;BME280;18782;48.984;8.548;2023-05-20T05:43:21;100000.22;;;13.99;86.71
32298;BME280;18782;48.984;8.548;2023-05-20T05:45:50;99999.47;;;14.06;85.74
32298;BME280;18782;48.984;8.548;2023-05-20T05:48:18;100013.38;;;14.16;84.42
32298;BME280;18782;48.984;8.548;2023-05-20T05:50:46;100009.94;;;14.18;83.19
32298;BME280;18782;48.984;8.548;2023-05-20T05:53:15;100017.75;;;14.21;83.02
32298;BME280;18782;48.984;8.548;2023-05-20T05:55:48;100012.59;;;14.21;82.74
32298;BME280;18782;48.984;8.548;2023-05-20T05:58:16;100011.81;;;14.31;82.73
32298;BME280;18782;48.984;8.548;2023-05-20T06:00:44;100009.41;;;14.47;82.06
32298;BME280;18782;48.984;8.548;2023-05-20T06:03:12;100012.97;;;14.58;81.21
32298;BME280;18782;48.984;8.548;2023-05-20T06:05:44;100004.47;;;14.74;81.38
32298;BME280;18782;48.984;8.548;2023-05-20T06:08:11;100011.44;;;14.81;80.53
32298;BME280;18782;48.984;8.548;2023-05-20T06:10:39;100015.88;;;14.93;78.88
32298;BME280;18782;48.984;8.548;2023-05-20T06:13:08;100006.38;;;14.95;79.31
32298;BME280;18782;48.984;8.548;2023-05-20T06:15:36;100009.88;;;15.02;78.95
32298;BME280;18782;48.984;8.548;2023-05-20T06:18:03;100019.47;;;15.13;79.37
32298;BME280;18782;48.984;8.548;2023-05-20T06:20:32;100010.88;;;15.24;79.13
32298;BME280;18782;48.984;8.548;2023-05-20T06:23:00;100004.94;;;15.38;78.10
32298;BME280;18782;48.984;8.548;2023-05-20T06:25:36;99988.59;;;15.53;77.82
32298;BME280;18782;48.984;8.548;2023-05-20T06:28:05;99998.22;;;15.71;76.11
32298;BME280;18782;48.984;8.548;2023-05-20T06:30:35;99986.19;;;15.88;76.66
32298;BME280;18782;48.984;8.548;2023-05-20T06:33:02;99982.78;;;16.08;76.52
32298;BME280;18782;48.984;8.548;2023-05-20T06:35:30;99982.78;;;16.12;74.45
32298;BME280;18782;48.984;8.548;2023-05-20T06:38:01;99987.97;;;16.17;74.30
32298;BME280;18782;48.984;8.548;2023-05-20T06:40:29;99994.06;;;16.25;73.77
32298;BME280;18782;48.984;8.548;2023-05-20T06:42:57;99990.66;;;16.40;73.57
32298;BME280;18782;48.984;8.548;2023-05-20T06:45:50;99993.25;;;16.57;71.86
32298;BME280;18782;48.984;8.548;2023-05-20T06:48:26;99993.31;;;16.72;72.14
32298;BME280;18782;48.984;8.548;2023-05-20T06:50:53;99982.88;;;16.90;71.18
32298;BME280;18782;48.984;8.548;2023-05-20T06:53:22;99972.50;;;16.97;70.76
32298;BME280;18782;48.984;8.548;2023-05-20T06:55:49;99979.41;;;17.05;70.30
32298;BME280;18782;48.984;8.548;2023-05-20T06:58:22;99979.44;;;16.91;70.38
32298;BME280;18782;48.984;8.548;2023-05-20T07:00:54;99980.28;;;16.93;71.03
32298;BME280;18782;48.984;8.548;2023-05-20T07:03:23;99975.94;;;17.02;71.09
32298;BME280;18782;48.984;8.548;2023-05-20T07:05:51;99973.34;;;17.05;70.69
32298;BME280;18782;48.984;8.548;2023-05-20T07:08:20;99969.00;;;17.19;71.66
32298;BME280;18782;48.984;8.548;2023-05-20T07:10:47;99971.56;;;17.20;70.35
32298;BME280;18782;48.984;8.548;2023-05-20T07:13:19;99982.88;;;17.18;71.05
32298;BME280;18782;48.984;8.548;2023-05-20T07:15:49;99965.50;;;17.17;70.57
32298;BME280;18782;48.984;8.548;2023-05-20T07:18:19;99970.72;;;17.20;69.55
32298;BME280;18782;48.984;8.548;2023-05-20T07:20:51;99962.03;;;17.21;70.54
32298;BME280;18782;48.984;8.548;2023-05-20T07:23:38;99951.59;;;17.27;69.80
32298;BME280;18782;48.984;8.548;2023-05-20T07:26:06;99953.38;;;17.28;70.25
32298;BME280;18782;48.984;8.548;2023-05-20T07:28:34;99944.69;;;17.29;69.51
32298;BME280;18782;48.984;8.548;2023-05-20T07:31:02;99946.38;;;17.36;70.21
32298;BME280;18782;48.984;8.548;2023-05-20T07:33:33;99953.22;;;17.59;69.89
32298;BME280;18782;48.984;8.548;2023-05-20T07:36:02;99950.59;;;17.77;68.11
32298;BME280;18782;48.984;8.548;2023-05-20T07:38:30;99947.03;;;17.93;67.73
32298;BME280;18782;48.984;8.548;2023-05-20T07:41:02;99947.84;;;18.08;67.13
32298;BME280;18782;48.984;8.548;2023-05-20T07:43:30;99935.50;;;18.31;66.46
32298;BME280;18782;48.984;8.548;2023-05-20T07:45:58;99936.28;;;18.44;65.48
32298;BME280;18782;48.984;8.548;2023-05-20T07:48:26;99939.69;;;18.52;65.56
32298;BME280;18782;48.984;8.548;2023-05-20T07:50:55;99939.56;;;18.67;65.18
32298;BME280;18782;48.984;8.548;2023-05-20T07:53:25;99942.16;;;18.75;64.84
32298;BME280;18782;48.984;8.548;2023-05-20T07:55:53;99931.69;;;18.80;65.07
32298;BME280;18782;48.984;8.548;2023-05-20T07:58:22;99935.16;;;18.80;64.04
32298;BME280;18782;48.984;8.548;2023-05-20T08:00:50;99930.69;;;18.91;64.15
32298;BME280;18782;48.984;8.548;2023-05-20T08:03:18;99930.81;;;18.81;62.89
32298;BME280;18782;48.984;8.548;2023-05-20T08:05:55;99932.34;;;18.98;62.98
32298;BME280;18782;48.984;8.548;2023-05-20T08:08:24;99927.88;;;19.11;64.02
32298;BME280;18782;48.984;8.548;2023-05-20T08:10:57;99929.50;;;19.23;63.40
32298;BME280;18782;48.984;8.548;2023-05-20T08:13:25;99936.44;;;19.24;62.15
32298;BME280;18782;48.984;8.548;2023-05-20T08:15:53;99926.00;;;19.21;63.62
32298;BME280;18782;48.984;8.548;2023-05-20T08:18:22;99919.69;;;19.42;63.49
32298;BME280;18782;48.984;8.548;2023-05-20T08:20:50;99924.28;;;19.23;62.34
32298;BME280;18782;48.984;8.548;2023-05-20T08:23:20;99924.09;;;19.38;62.65
32298;BME280;18782;48.984;8.548;2023-05-20T08:25:48;99902.31;;;19.41;62.24
32298;BME280;18782;48.984;8.548;2023-05-20T08:28:18;99913.41;;;19.56;62.84
32298;BME280;18782;48.984;8.548;2023-05-20T08:30:47;99906.44;;;19.59;63.97
32298;BME280;18782;48.984;8.548;2023-05-20T08:33:15;99907.09;;;19.76;63.15
32298;BME280;18782;48.984;8.548;2023-05-20T08:35:44;99910.47;;;19.86;62.12
32298;BME280;18782;48.984;8.548;2023-05-20T08:38:12;99906.00;;;19.92;60.71
32298;BME280;18782;48.984;8.548;2023-05-20T08:40:41;99908.00;;;19.75;62.72
32298;BME280;18782;48.984;8.548;2023-05-20T08:43:09;99899.00;;;19.96;61.96
32298;BME280;18782;48.984;8.548;2023-05-20T08:45:37;99894.34;;;20.15;61.75
32298;BME280;18782;48.984;8.548;2023-05-20T08:48:10;99888.16;;;20.22;60.70
32298;BME280;18782;48.984;8.548;2023-05-20T08:50:38;99895.84;;;20.29;60.50
32298;BME280;18782;48.984;8.548;2023-05-20T08:53:06;99890.44;;;20.40;59.90
32298;BME280;18782;48.984;8.548;2023-05-20T08:55:46;99897.47;;;20.38;59.72
32298;BME280;18782;48.984;8.548;2023-05-20T08:58:16;99906.06;;;20.46;59.51
32298;BME280;18782;48.984;8.548;2023-05-20T09:00:44;99899.97;;;20.47;59.28
32298;BME280;18782;48.984;8.548;2023-05-20T09:03:12;99894.56;;;20.56;58.73
32298;BME280;18782;48.984;8.548;2023-05-20T09:05:40;99885.66;;;20.67;58.27
32298;BME280;18782;48.984;8.548;2023-05-20T09:08:08;99904.09;;;20.61;58.77
32298;BME280;18782;48.984;8.548;2023-05-20T09:10:37;99894.53;;;20.59;58.85
32298;BME280;18782;48.984;8.548;2023-05-20T09:13:07;99905.69;;;20.69;57.73
32298;BME280;18782;48.984;8.548;2023-05-20T09:15:36;99899.72;;;20.63;57.77
32298;BME280;18782;48.984;8.548;2023-05-20T09:18:06;99908.13;;;20.80;58.29
32298;BME280;18782;48.984;8.548;2023-05-20T09:20:35;99908.91;;;20.85;58.55
32298;BME280;18782;48.984;8.548;2023-05-20T09:23:04;99902.84;;;20.83;57.27
32298;BME280;18782;48.984;8.548;2023-05-20T09:25:34;99911.28;;;20.97;57.45
32298;BME280;18782;48.984;8.548;2023-05-20T09:28:03;99910.41;;;20.97;56.47
32298;BME280;18782;48.984;8.548;2023-05-20T09:30:31;99907.38;;;21.20;56.58
32298;BME280;18782;48.984;8.548;2023-05-20T09:33:03;99903.78;;;21.24;55.99
32298;BME280;18782;48.984;8.548;2023-05-20T09:35:34;99912.28;;;21.38;56.24
32298;BME280;18782;48.984;8.548;2023-05-20T09:38:04;99903.38;;;21.45;55.50
32298;BME280;18782;48.984;8.548;2023-05-20T09:40:32;99899.69;;;21.55;55.01
32298;BME280;18782;48.984;8.548;2023-05-20T09:43:04;99895.66;;;21.41;55.22
32298;BME280;18782;48.984;8.548;2023-05-20T09:45:32;99887.88;;;21.36;55.83
32298;BME280;18782;48.984;8.548;2023-05-20T09:48:03;99888.56;;;21.46;55.45
32298;BME280;18782;48.984;8.548;2023-05-20T09:50:31;99883.63;;;21.71;54.44
32298;BME280;18782;48.984;8.548;2023-05-20T09:53:02;99876.19;;;21.91;54.92
32298;BME280;18782;48.984;8.548;2023-05-20T09:55:30;99877.16;;;21.87;55.11
32298;BME280;18782;48.984;8.548;2023-05-20T09:58:01;99877.56;;;22.07;55.54
32298;BME280;18782;48.984;8.548;2023-05-20T10:00:29;99882.72;;;22.12;52.67
32298;BME280;18782;48.984;8.548;2023-05-20T10:02:58;99867.22;;;22.01;54.50
32298;BME280;18782;48.984;8.548;2023-05-20T10:05:29;99878.22;;;22.17;55.62
32298;BME280;18782;48.984;8.548;2023-05-20T10:10:58;99865.00;;;22.22;52.55
32298;BME280;18782;48.984;8.548;2023-05-20T10:13:54;99858.38;;;22.05;53.72
32298;BME280;18782;48.984;8.548;2023-05-20T10:16:31;99861.84;;;22.43;53.85
32298;BME280;18782;48.984;8.548;2023-05-20T10:19:11;99853.63;;;22.57;53.50
32298;BME280;18782;48.984;8.548;2023-05-20T10:21:55;99851.81;;;22.93;53.30
32298;BME280;18782;48.984;8.548;2023-05-20T10:24:29;99839.34;;;23.01;53.59
32298;BME280;18782;48.984;8.548;2023-05-20T10:26:57;99852.28;;;23.07;51.71
32298;BME280;18782;48.984;8.548;2023-05-20T10:29:25;99859.69;;;23.24;51.21
32298;BME280;18782;48.984;8.548;2023-05-20T10:31:53;99846.78;;;23.16;49.54
32298;BME280;18782;48.984;8.548;2023-05-20T10:34:22;99840.91;;;23.38;50.94
32298;BME280;18782;48.984;8.548;2023-05-20T10:37:00;99829.78;;;23.30;49.72
32298;BME280;18782;48.984;8.548;2023-05-20T10:39:28;99828.03;;;23.58;49.67
32298;BME280;18782;48.984;8.548;2023-05-20T10:42:05;99835.59;;;23.71;48.86
32298;BME280;18782;48.984;8.548;2023-05-20T10:44:42;99825.41;;;23.58;48.92
32298;BME280;18782;48.984;8.548;2023-05-20T10:47:10;99817.25;;;23.67;49.66
32298;BME280;18782;48.984;8.548;2023-05-20T10:49:43;99819.63;;;23.77;47.94
32298;BME280;18782;48.984;8.548;2023-05-20T10:52:13;99841.47;;;23.49;49.47
32298;BME280;18782;48.984;8.548;2023-05-20T10:54:46;99837.16;;;23.76;47.85
32298;BME280;18782;48.984;8.548;2023-05-20T10:57:17;99822.97;;;24.08;48.69
32298;BME280;18782;48.984;8.548;2023-05-20T10:59:45;99820.63;;;24.26;47.73
32298;BME280;18782;48.984;8.548;2023-05-20T11:02:14;99814.09;;;24.39;47.62
32298;BME280;18782;48.984;8.548;2023-05-20T11:04:43;99814.03;;;24.65;47.49
32298;BME280;18782;48.984;8.548;2023-05-20T11:07:23;99809.25;;;25.00;47.87
32298;BME280;18782;48.984;8.548;2023-05-20T11:09:50;99804.34;;;24.91;44.84
32298;BME280;18782;48.984;8.548;2023-05-20T11:12:20;99823.25;;;25.02;46.54
32298;BME280;18782;48.984;8.548;2023-05-20T11:14:48;99808.69;;;24.92;45.13
32298;BME280;18782;48.984;8.548;2023-05-20T11:17:17;99804.91;;;24.99;46.59
32298;BME280;18782;48.984;8.548;2023-05-20T11:19:46;99797.00;;;24.76;44.23
32298;BME280;18782;48.984;8.548;2023-05-20T11:22:15;99790.81;;;24.77;45.23
32298;BME280;18782;48.984;8.548;2023-05-20T11:24:43;99788.41;;;24.94;46.02
32298;BME280;18782;48.984;8.548;2023-05-20T11:27:11;99790.03;;;24.98;44.68
32298;BME280;18782;48.984;8.548;2023-05-20T11:29:38;99781.78;;;25.31;45.41
32298;BME280;18782;48.984;8.548;2023-05-20T11:32:06;99776.06;;;25.43;44.42
32298;BME280;18782;48.984;8.548;2023-05-20T11:34:35;99779.41;;;25.46;44.12
32298;BME280;18782;48.984;8.548;2023-05-20T11:37:06;99784.84;;;25.42;43.76
32298;BME280;18782;48.984;8.548;2023-05-20T11:39:36;99779.84;;;25.36;44.46
32298;BME280;18782;48.984;8.548;2023-05-20T11:42:04;99772.84;;;25.35;44.25
32298;BME280;18782;48.984;8.548;2023-05-20T11:44:32;99776.91;;;25.43;45.92
32298;BME280;18782;48.984;8.548;2023-05-20T11:47:01;99785.25;;;25.33;43.69
32298;BME280;18782;48.984;8.548;2023-05-20T11:49:38;99780.06;;;25.30;44.95
32298;BME280;18782;48.984;8.548;2023-05-20T11:52:08;99775.16;;;25.20;43.71
32298;BME280;18782;48.984;8.548;2023-05-20T11:54:37;99771.56;;;25.23;43.91
32298;BME280;18782;48.984;8.548;2023-05-20T11:57:05;99771.25;;;25.31;44.80
32298;BME280;18782;48.984;8.548;2023-05-20T11:59:33;99769.00;;;25.43;44.44
32298;BME280;18782;48.984;8.548;2023-05-20T12:02:02;99760.03;;;25.25;44.59
32298;BME280;18782;48.984;8.548;2023-05-20T12:04:29;99765.31;;;25.02;44.90
32298;BME280;18782;48.984;8.548;2023-05-20T12:06:57;99758.31;;;25.24;44.46
32298;BME280;18782;48.984;8.548;2023-05-20T12:09:25;99748.03;;;25.62;44.43
32298;BME280;18782;48.984;8.548;2023-05-20T12:11:54;99766.81;;;25.76;43.91
32298;BME280;18782;48.984;8.548;2023-05-20T12:14:22;99752.53;;;25.38;43.47
32298;BME280;18782;48.984;8.548;2023-05-20T12:16:50;99754.63;;;25.05;46.11
32298;BME280;18782;48.984;8.548;2023-05-20T12:19:19;99749.50;;;25.02;45.89
32298;BME280;18782;48.984;8.548;2023-05-20T12:21:47;99756.47;;;25.03;46.45
32298;BME280;18782;48.984;8.548;2023-05-20T12:24:14;99746.41;;;24.91;46.22
32298;BME280;18782;48.984;8.548;2023-05-20T12:26:42;99743.34;;;24.80;45.07
32298;BME280;18782;48.984;8.548;2023-05-20T12:29:11;99751.56;;;24.94;45.62
32298;BME280;18782;48.984;8.548;2023-05-20T12:31:39;99750.31;;;24.81;45.75
32298;BME280;18782;48.984;8.548;2023-05-20T12:34:06;99746.53;;;24.88;46.69
32298;BME280;18782;48.984;8.548;2023-05-20T12:36:34;99747.91;;;24.75;45.83
32298;BME280;18782;48.984;8.548;2023-05-20T12:39:03;99740.81;;;24.77;46.07
32298;BME280;18782;48.984;8.548;2023-05-20T12:41:31;99740.13;;;24.71;45.79
32298;BME280;18782;48.984;8.548;2023-05-20T12:43:59;99750.31;;;24.81;46.10
32298;BME280;18782;48.984;8.548;2023-05-20T12:46:28;99738.28;;;24.73;46.00
32298;BME280;18782;48.984;8.548;2023-05-20T12:48:56;99738.16;;;24.77;46.14
32298;BME280;18782;48.984;8.548;2023-05-20T12:51:24;99743.66;;;24.70;45.85
32298;BME280;18782;48.984;8.548;2023-05-20T12:53:51;99742.97;;;24.89;46.02
32298;BME280;18782;48.984;8.548;2023-05-20T12:56:19;99738.75;;;25.54;44.97
32298;BME280;18782;48.984;8.548;2023-05-20T12:58:47;99728.50;;;25.90;44.87
32298;BME280;18782;48.984;8.548;2023-05-20T13:01:15;99727.44;;;26.14;43.78
32298;BME280;18782;48.984;8.548;2023-05-20T13:03:44;99738.41;;;26.05;44.28
32298;BME280;18782;48.984;8.548;2023-05-20T13:06:13;99725.59;;;25.74;43.45
32298;BME280;18782;48.984;8.548;2023-05-20T13:08:41;99725.25;;;25.61;44.12